createdAt,value
2022-11-29T00:01:34.220Z,-0.33
2022-11-29T00:04:02.939Z,-0.39
2022-11-29T00:06:32.256Z,-0.28
2022-11-29T00:09:04.374Z,-0.20
2022-11-29T00:11:52.977Z,-0.24
2022-11-29T00:14:22.553Z,-0.23
2022-11-29T00:16:55.150Z,-0.22
2022-11-29T00:19:23.630Z,-0.47
2022-11-29T00:21:51.766Z,-0.54
2022-11-29T00:24:21.872Z,-0.18
2022-11-29T00:26:50.314Z,-0.35
2022-11-29T00:29:18.856Z,-0.44
2022-11-29T00:31:47.166Z,-0.44
2022-11-29T00:34:15.530Z,-0.47
2022-11-29T00:36:43.558Z,-0.56
2022-11-29T00:39:16.414Z,-0.39
2022-11-29T00:41:45.864Z,-0.29
2022-11-29T00:44:19.915Z,-0.45
2022-11-29T00:46:49.200Z,-0.58
2022-11-29T00:49:17.917Z,-0.51
2022-11-29T00:51:46.037Z,-0.46
2022-11-29T00:54:14.396Z,-0.49
2022-11-29T00:56:42.780Z,-0.48
2022-11-29T00:59:12.560Z,-0.33
2022-11-29T01:01:40.653Z,-0.71
2022-11-29T01:04:09.244Z,-0.82
2022-11-29T01:06:37.316Z,-1.00
2022-11-29T01:09:06.415Z,-0.73
2022-11-29T01:11:35.127Z,-0.76
2022-11-29T01:14:04.360Z,-0.68
2022-11-29T01:16:34.276Z,-0.64
2022-11-29T01:19:02.715Z,-0.97
2022-11-29T01:21:30.990Z,-0.81
2022-11-29T01:24:00.954Z,-0.96
2022-11-29T01:29:35.240Z,-1.02
2022-11-29T01:32:05.428Z,-0.75
2022-11-29T01:34:33.492Z,-1.17
2022-11-29T01:37:02.047Z,-0.85
2022-11-29T01:39:30.217Z,-1.03
2022-11-29T01:42:00.146Z,-0.84
2022-11-29T01:45:04.072Z,-0.24
2022-11-29T01:47:34.552Z,-0.78
2022-11-29T01:50:04.391Z,-0.64
2022-11-29T01:52:33.547Z,-0.78
2022-11-29T01:55:04.460Z,-0.63
2022-11-29T01:57:34.611Z,-0.51
2022-11-29T02:00:07.582Z,-0.42
2022-11-29T02:02:41.256Z,-0.43
2022-11-29T02:05:11.297Z,-0.54
2022-11-29T02:07:39.635Z,-0.86
2022-11-29T02:10:09.036Z,-0.54
2022-11-29T02:12:44.022Z,-0.43
2022-11-29T02:15:23.682Z,-0.27
2022-11-29T02:18:02.679Z,-0.26
2022-11-29T02:20:59.150Z,-0.20
2022-11-29T02:24:07.542Z,-0.13
2022-11-29T02:27:00.533Z,-0.25
2022-11-29T02:29:42.032Z,-0.31
2022-11-29T02:32:45.526Z,-0.14
2022-11-29T02:35:26.403Z,-0.13
2022-11-29T02:38:21.122Z,-0.08
2022-11-29T02:40:58.573Z,-0.23
2022-11-29T02:43:58.515Z,-0.03
2022-11-29T02:46:47.763Z,-0.08
2022-11-29T02:49:23.539Z,-0.32
2022-11-29T02:51:58.335Z,-0.22
2022-11-29T02:54:29.794Z,-0.25
2022-11-29T02:57:01.537Z,-0.32
2022-11-29T02:59:41.708Z,-0.21
2022-11-29T03:02:18.259Z,-0.44
2022-11-29T03:04:49.773Z,-0.40
2022-11-29T03:07:26.656Z,-0.29
2022-11-29T03:09:58.681Z,-0.35
2022-11-29T03:12:32.036Z,-0.30
2022-11-29T03:15:06.999Z,-0.26
2022-11-29T03:17:45.227Z,-0.17
2022-11-29T03:20:23.960Z,-0.29
2022-11-29T03:23:06.264Z,-0.18
2022-11-29T03:25:40.294Z,-0.36
2022-11-29T03:28:14.735Z,-0.40
2022-11-29T03:30:48.427Z,-0.43
2022-11-29T03:33:24.104Z,-0.37
2022-11-29T03:35:55.576Z,-0.51
2022-11-29T03:38:30.441Z,-0.39
2022-11-29T03:41:06.221Z,-0.48
2022-11-29T03:43:40.783Z,-0.40
2022-11-29T03:46:12.993Z,-0.48
2022-11-29T03:48:46.263Z,-0.57
2022-11-29T03:51:15.948Z,-0.55
2022-11-29T03:53:48.754Z,-0.70
2022-11-29T03:56:29.001Z,-0.61
2022-11-29T03:59:05.585Z,-0.69
2022-11-29T04:02:00.274Z,-0.62
2022-11-29T04:05:01.487Z,-0.54
2022-11-29T04:07:41.053Z,-0.52
2022-11-29T04:10:22.597Z,-0.68
2022-11-29T04:12:58.547Z,-0.44
2022-11-29T04:15:55.737Z,-0.57
2022-11-29T04:18:40.965Z,-0.70
2022-11-29T04:21:24.002Z,-0.96
2022-11-29T04:24:17.143Z,-0.68
2022-11-29T04:27:09.013Z,-0.57
2022-11-29T04:29:57.022Z,-0.54
2022-11-29T04:33:00.256Z,-0.71
2022-11-29T04:35:37.519Z,-0.68
2022-11-29T04:38:41.571Z,-0.73
2022-11-29T04:41:21.044Z,-0.84
2022-11-29T04:44:19.193Z,-0.88
2022-11-29T04:47:20.051Z,-0.96
2022-11-29T04:50:06.826Z,-1.00
2022-11-29T04:52:47.249Z,-1.14
2022-11-29T04:55:29.423Z,-1.21
2022-11-29T04:58:02.634Z,-1.24
2022-11-29T05:00:36.635Z,-1.25
2022-11-29T05:03:09.038Z,-1.24
2022-11-29T05:05:43.443Z,-1.17
2022-11-29T05:08:21.126Z,-1.31
2022-11-29T05:10:57.663Z,-1.36
2022-11-29T05:13:30.657Z,-1.38
2022-11-29T05:16:13.338Z,-1.40
2022-11-29T05:19:08.699Z,-1.35
2022-11-29T05:21:43.931Z,-1.54
2022-11-29T05:24:21.461Z,-1.33
2022-11-29T05:26:52.662Z,-1.41
2022-11-29T05:29:26.508Z,-1.35
2022-11-29T05:32:12.852Z,-1.37
2022-11-29T05:34:58.133Z,-1.41
2022-11-29T05:37:34.068Z,-1.45
2022-11-29T05:40:21.915Z,-1.53
2022-11-29T05:43:03.184Z,-1.62
2022-11-29T05:45:34.607Z,-1.59
2022-11-29T05:48:08.353Z,-1.49
2022-11-29T05:50:39.306Z,-1.54
2022-11-29T05:53:12.187Z,-1.21
2022-11-29T05:55:46.057Z,-1.60
2022-11-29T05:58:27.052Z,-1.62
2022-11-29T06:01:01.368Z,-1.82
2022-11-29T06:03:36.645Z,-1.73
2022-11-29T06:06:08.430Z,-1.90
2022-11-29T06:08:41.119Z,-1.86
2022-11-29T06:11:16.906Z,-1.81
2022-11-29T06:13:54.732Z,-1.84
2022-11-29T06:16:47.782Z,-1.76
2022-11-29T06:19:47.010Z,-1.68
2022-11-29T06:22:46.641Z,-1.91
2022-11-29T06:25:24.867Z,-1.88
2022-11-29T06:28:09.182Z,-1.93
2022-11-29T06:30:51.145Z,-1.94
2022-11-29T06:33:22.821Z,-2.23
2022-11-29T06:36:05.646Z,-1.93
2022-11-29T06:38:34.132Z,-2.61
2022-11-29T06:41:03.006Z,-2.26
2022-11-29T06:43:32.290Z,-2.33
2022-11-29T06:46:06.553Z,-2.36
2022-11-29T06:48:40.354Z,-2.23
2022-11-29T06:51:15.977Z,-2.47
2022-11-29T06:53:49.881Z,-2.20
2022-11-29T06:56:23.586Z,-2.12
2022-11-29T06:59:00.296Z,-1.97
2022-11-29T07:01:35.130Z,-1.81
2022-11-29T07:04:21.148Z,-1.90
2022-11-29T07:06:51.614Z,-2.07
2022-11-29T07:09:21.925Z,-1.99
2022-11-29T07:11:50.914Z,-1.49
2022-11-29T07:14:19.600Z,-1.39
2022-11-29T07:16:57.141Z,-0.84
2022-11-29T07:19:34.978Z,-0.59
2022-11-29T07:22:10.918Z,-0.22
2022-11-29T07:24:47.275Z,-0.25
2022-11-29T07:27:21.290Z,0.01
2022-11-29T07:30:05.287Z,0.66
2022-11-29T07:32:43.638Z,0.33
2022-11-29T07:35:18.714Z,0.28
2022-11-29T07:37:57.978Z,0.09
2022-11-29T07:40:37.351Z,0.50
2022-11-29T07:43:19.661Z,1.29
2022-11-29T07:45:47.781Z,0.98
2022-11-29T07:48:17.931Z,1.61
2022-11-29T07:50:46.497Z,1.66
2022-11-29T07:53:18.400Z,2.31
2022-11-29T07:55:47.098Z,2.29
2022-11-29T07:58:16.905Z,2.76
2022-11-29T08:00:45.878Z,3.50
2022-11-29T08:03:14.548Z,3.97
2022-11-29T08:05:47.035Z,4.58
2022-11-29T08:08:16.992Z,3.80
2022-11-29T08:10:45.063Z,3.64
2022-11-29T08:13:13.452Z,4.10
2022-11-29T08:15:45.287Z,5.15
2022-11-29T08:18:13.984Z,5.49
2022-11-29T08:20:42.498Z,6.04
2022-11-29T08:23:12.802Z,6.73
2022-11-29T08:25:42.650Z,7.30
2022-11-29T08:28:11.406Z,7.13
2022-11-29T08:30:39.662Z,7.12
2022-11-29T08:33:08.291Z,7.18
2022-11-29T08:35:37.024Z,6.95
2022-11-29T08:38:05.523Z,6.91
2022-11-29T08:40:33.692Z,7.39
2022-11-29T08:43:03.548Z,8.19
2022-11-29T08:45:31.761Z,7.91
2022-11-29T08:48:00.203Z,8.53
2022-11-29T08:50:28.490Z,8.86
2022-11-29T08:53:16.828Z,9.72
2022-11-29T08:55:46.750Z,9.33
2022-11-29T08:58:16.914Z,9.44
2022-11-29T09:00:47.233Z,9.92
2022-11-29T09:03:33.402Z,10.33
2022-11-29T09:06:11.924Z,11.21
2022-11-29T09:08:43.564Z,11.12
2022-11-29T09:11:15.137Z,11.26
2022-11-29T09:13:46.508Z,11.33
2022-11-29T09:16:15.939Z,10.51
2022-11-29T09:18:50.008Z,10.15
2022-11-29T09:21:20.031Z,10.59
2022-11-29T09:23:48.415Z,10.36
2022-11-29T09:26:19.766Z,10.74
2022-11-29T09:28:49.540Z,11.16
2022-11-29T09:31:17.795Z,12.13
2022-11-29T09:33:46.688Z,12.49
2022-11-29T09:36:15.134Z,13.67
2022-11-29T09:38:43.746Z,13.13
2022-11-29T09:41:28.140Z,13.43
2022-11-29T09:44:06.005Z,13.27
2022-11-29T09:46:42.023Z,13.22
2022-11-29T09:49:32.082Z,13.92
2022-11-29T09:52:06.964Z,13.72
2022-11-29T09:54:43.084Z,12.33
2022-11-29T09:57:12.611Z,11.19
2022-11-29T09:59:46.084Z,11.76
2022-11-29T10:02:21.306Z,13.24
2022-11-29T10:04:53.535Z,14.09
2022-11-29T10:07:22.713Z,14.80
2022-11-29T10:09:53.517Z,14.51
2022-11-29T10:12:25.238Z,15.15
2022-11-29T10:15:00.496Z,15.56
2022-11-29T10:17:34.470Z,15.88
2022-11-29T10:20:07.859Z,16.35
2022-11-29T10:22:42.162Z,16.70
2022-11-29T10:25:17.446Z,16.96
2022-11-29T10:27:45.540Z,16.81
2022-11-29T10:30:17.321Z,17.30
2022-11-29T10:32:47.952Z,17.28
2022-11-29T10:35:18.009Z,17.12
2022-11-29T10:38:07.817Z,16.48
2022-11-29T10:40:36.250Z,16.03
2022-11-29T10:43:04.700Z,15.16
2022-11-29T10:45:37.805Z,15.22
2022-11-29T10:48:08.112Z,15.29
2022-11-29T10:50:38.029Z,15.52
2022-11-29T10:53:08.747Z,15.01
2022-11-29T10:55:40.620Z,14.25
2022-11-29T10:58:09.514Z,14.97
2022-11-29T11:00:53.054Z,14.90
2022-11-29T11:03:37.143Z,15.26
2022-11-29T11:06:13.506Z,15.59
2022-11-29T11:08:43.895Z,15.49
2022-11-29T11:11:13.128Z,15.84
2022-11-29T11:13:41.607Z,16.28
2022-11-29T11:16:17.799Z,17.19
2022-11-29T11:18:46.913Z,17.03
2022-11-29T11:21:17.113Z,16.85
2022-11-29T11:23:54.095Z,17.11
2022-11-29T11:26:23.530Z,17.04
2022-11-29T11:28:55.259Z,16.73
2022-11-29T11:31:34.237Z,15.90
2022-11-29T11:34:26.720Z,15.45
2022-11-29T11:36:56.320Z,14.81
2022-11-29T11:39:24.920Z,13.81
2022-11-29T11:42:11.181Z,11.74
2022-11-29T11:44:48.788Z,10.99
2022-11-29T11:47:20.551Z,10.74
2022-11-29T11:49:51.084Z,9.77
2022-11-29T11:52:22.367Z,9.13
2022-11-29T11:54:54.557Z,8.66
2022-11-29T11:57:24.044Z,8.14
2022-11-29T11:59:53.457Z,7.75
2022-11-29T12:02:38.067Z,7.67
2022-11-29T12:05:11.677Z,7.42
2022-11-29T12:08:07.370Z,7.34
2022-11-29T12:10:34.945Z,7.08
2022-11-29T12:13:04.219Z,6.78
2022-11-29T12:15:35.186Z,6.57
2022-11-29T12:18:05.656Z,7.09
2022-11-29T12:20:35.943Z,6.78
2022-11-29T12:23:25.527Z,6.75
2022-11-29T12:25:59.984Z,6.17
2022-11-29T12:28:36.726Z,5.90
2022-11-29T12:31:15.782Z,5.72
2022-11-29T12:33:51.401Z,5.74
2022-11-29T12:36:26.919Z,5.66
2022-11-29T12:39:12.391Z,5.68
2022-11-29T12:41:53.637Z,5.53
2022-11-29T12:44:33.732Z,5.62
2022-11-29T12:50:08.777Z,5.37
2022-11-29T12:52:42.865Z,5.24
2022-11-29T12:55:20.515Z,5.14
2022-11-29T12:57:55.648Z,5.10
2022-11-29T13:00:24.353Z,4.66
2022-11-29T13:03:02.579Z,4.81
2022-11-29T13:05:43.330Z,4.64
2022-11-29T13:08:21.505Z,4.52
2022-11-29T13:10:59.036Z,4.36
2022-11-29T13:13:34.034Z,3.89
2022-11-29T13:16:07.252Z,3.70
2022-11-29T13:18:40.089Z,3.82
2022-11-29T13:21:14.767Z,3.71
2022-11-29T13:26:38.207Z,3.30
2022-11-29T13:29:08.619Z,3.45
2022-11-29T13:31:38.828Z,2.89
2022-11-29T13:34:10.869Z,3.33
2022-11-29T13:36:48.913Z,3.64
2022-11-29T13:39:25.766Z,3.07
2022-11-29T13:42:01.067Z,3.19
2022-11-29T13:44:34.960Z,3.52
2022-11-29T13:47:07.365Z,3.30
2022-11-29T13:49:56.183Z,3.09
2022-11-29T13:52:39.195Z,2.94
2022-11-29T13:55:18.452Z,2.98
2022-11-29T13:58:15.081Z,2.92
2022-11-29T14:00:39.826Z,3.11
2022-11-29T14:03:22.760Z,3.52
2022-11-29T14:05:52.619Z,3.31
2022-11-29T14:08:42.440Z,3.59
2022-11-29T14:11:22.873Z,3.05
2022-11-29T14:13:53.820Z,3.08
2022-11-29T14:16:29.524Z,3.07
2022-11-29T14:19:19.406Z,3.30
2022-11-29T14:22:31.323Z,3.50
2022-11-29T14:25:49.196Z,3.16
2022-11-29T14:28:30.859Z,2.92
2022-11-29T14:31:01.907Z,2.64
2022-11-29T14:33:53.378Z,2.80
2022-11-29T14:36:40.018Z,3.19
2022-11-29T14:39:27.960Z,2.52
2022-11-29T14:42:06.747Z,2.63
2022-11-29T14:44:36.671Z,2.32
2022-11-29T14:47:07.341Z,2.40
2022-11-29T14:49:41.094Z,2.18
2022-11-29T14:52:18.620Z,1.73
2022-11-29T14:55:00.137Z,1.92
2022-11-29T14:58:11.941Z,2.33
2022-11-29T15:01:08.120Z,1.76
2022-11-29T15:03:47.612Z,1.91
2022-11-29T15:06:26.469Z,1.83
2022-11-29T15:09:00.638Z,1.66
2022-11-29T15:11:35.602Z,1.66
2022-11-29T15:14:07.445Z,1.51
2022-11-29T15:16:59.234Z,1.55
2022-11-29T15:19:47.829Z,1.75
2022-11-29T15:22:18.654Z,1.51
2022-11-29T15:24:55.592Z,1.37
2022-11-29T15:27:24.584Z,0.83
2022-11-29T15:29:53.140Z,0.84
2022-11-29T15:32:33.920Z,1.09
2022-11-29T15:35:07.371Z,0.77
2022-11-29T15:37:44.682Z,0.64
2022-11-29T15:40:15.214Z,0.75
2022-11-29T15:42:48.619Z,0.59
2022-11-29T15:45:43.995Z,0.74
2022-11-29T15:48:31.612Z,0.30
2022-11-29T15:51:06.440Z,0.49
2022-11-29T15:53:43.353Z,0.51
2022-11-29T15:56:27.249Z,0.75
2022-11-29T15:59:02.171Z,0.62
2022-11-29T16:01:41.257Z,0.47
2022-11-29T16:04:28.029Z,0.37
2022-11-29T16:07:00.541Z,0.36
2022-11-29T16:09:35.466Z,-0.00
2022-11-29T16:12:04.690Z,-0.08
2022-11-29T16:14:33.028Z,-0.12
2022-11-29T16:17:03.402Z,-0.32
2022-11-29T16:19:34.898Z,-0.62
2022-11-29T16:22:13.507Z,-0.64
2022-11-29T16:24:48.247Z,-0.56
2022-11-29T16:27:17.102Z,-0.47
2022-11-29T16:29:47.045Z,-0.45
2022-11-29T16:32:17.133Z,-0.37
2022-11-29T16:34:47.155Z,-0.23
2022-11-29T16:37:23.992Z,-0.06
2022-11-29T16:39:53.994Z,-0.19
2022-11-29T16:42:26.169Z,-0.29
2022-11-29T16:45:07.672Z,-0.35
2022-11-29T16:47:48.930Z,-0.25
2022-11-29T16:50:20.771Z,-0.40
2022-11-29T16:52:56.377Z,-0.97
2022-11-29T16:55:25.230Z,-1.28
2022-11-29T16:57:53.902Z,-0.85
2022-11-29T17:00:32.724Z,-0.84
2022-11-29T17:03:01.754Z,-1.44
2022-11-29T17:05:31.535Z,-1.37
2022-11-29T17:08:00.135Z,-1.57
2022-11-29T17:10:29.080Z,-1.28
2022-11-29T17:12:57.511Z,-1.49
2022-11-29T17:15:26.010Z,-1.28
2022-11-29T17:17:54.690Z,-1.43
2022-11-29T17:20:22.920Z,-1.79
2022-11-29T17:22:52.752Z,-1.49
2022-11-29T17:25:21.369Z,-1.87
2022-11-29T17:27:50.348Z,-1.57
2022-11-29T17:30:24.078Z,-1.25
2022-11-29T17:32:55.079Z,-1.34
2022-11-29T17:35:23.469Z,-1.64
2022-11-29T17:37:54.326Z,-1.25
2022-11-29T17:40:22.980Z,-1.90
2022-11-29T17:42:51.901Z,-2.01
2022-11-29T17:45:21.078Z,-1.63
2022-11-29T17:47:51.750Z,-1.52
2022-11-29T17:50:20.386Z,-1.68
2022-11-29T17:52:48.886Z,-1.90
2022-11-29T17:55:20.838Z,-1.33
2022-11-29T17:57:49.601Z,-1.72
2022-11-29T18:00:19.310Z,-1.65
2022-11-29T18:02:47.868Z,-1.77
2022-11-29T18:05:16.178Z,-1.66
2022-11-29T18:07:58.731Z,-1.70
2022-11-29T18:10:29.290Z,-1.21
2022-11-29T18:12:57.683Z,-1.69
2022-11-29T18:15:25.878Z,-1.97
2022-11-29T18:17:54.646Z,-1.65
2022-11-29T18:20:22.752Z,-1.42
2022-11-29T18:22:51.164Z,-1.73
2022-11-29T18:25:38.201Z,-1.78
2022-11-29T18:28:11.387Z,-0.97
2022-11-29T18:30:39.835Z,-1.31
2022-11-29T18:33:08.411Z,-1.12
2022-11-29T18:35:36.727Z,-1.36
2022-11-29T18:38:20.694Z,-1.34
2022-11-29T18:40:48.984Z,-1.46
2022-11-29T18:43:18.746Z,-0.94
2022-11-29T18:45:47.143Z,-0.97
2022-11-29T18:48:15.568Z,-1.25
2022-11-29T18:50:44.002Z,-1.23
2022-11-29T18:53:12.352Z,-1.52
2022-11-29T18:55:40.549Z,-1.41
2022-11-29T18:58:12.789Z,-0.96
2022-11-29T19:00:42.706Z,-1.01
2022-11-29T19:03:11.033Z,-1.23
2022-11-29T19:05:39.205Z,-1.29
2022-11-29T19:08:07.653Z,-1.22
2022-11-29T19:10:38.815Z,-0.97
2022-11-29T19:13:07.632Z,-1.53
2022-11-29T19:15:35.816Z,-1.90
2022-11-29T19:18:06.052Z,-1.69
2022-11-29T19:20:34.597Z,-1.94
2022-11-29T19:23:03.184Z,-1.50
2022-11-29T19:25:31.379Z,-1.59
2022-11-29T19:28:00.169Z,-1.53
2022-11-29T19:30:28.482Z,-2.06
2022-11-29T19:32:57.028Z,-2.20
2022-11-29T19:35:26.843Z,-1.33
2022-11-29T19:37:55.631Z,-1.60
2022-11-29T19:40:23.893Z,-1.26
2022-11-29T19:42:52.601Z,-1.48
2022-11-29T19:45:21.998Z,-1.58
2022-11-29T19:47:50.760Z,-1.28
2022-11-29T19:50:19.174Z,-1.05
2022-11-29T19:52:51.028Z,-0.62
2022-11-29T19:55:19.338Z,-1.10
2022-11-29T19:57:47.870Z,-0.76
2022-11-29T20:00:17.204Z,-1.02
2022-11-29T20:02:46.344Z,-1.54
2022-11-29T20:05:15.423Z,-1.44
2022-11-29T20:07:44.902Z,-0.89
2022-11-29T20:10:14.945Z,-0.39
2022-11-29T20:12:43.756Z,-1.03
2022-11-29T20:15:12.199Z,-0.78
2022-11-29T20:17:40.883Z,-0.76
2022-11-29T20:20:10.607Z,-0.27
2022-11-29T20:22:39.348Z,-0.80
2022-11-29T20:25:08.306Z,-0.27
2022-11-29T20:27:38.432Z,0.18
2022-11-29T20:30:08.274Z,0.11
2022-11-29T20:32:37.171Z,-0.48
2022-11-29T20:35:06.240Z,-1.10
2022-11-29T20:37:52.900Z,-0.54
2022-11-29T20:40:23.898Z,-0.71
2022-11-29T20:43:06.853Z,-0.29
2022-11-29T20:45:35.597Z,-0.44
2022-11-29T20:48:09.502Z,-0.29
2022-11-29T20:50:38.174Z,-0.80
2022-11-29T20:53:16.455Z,-0.32
2022-11-29T20:55:47.901Z,-1.06
2022-11-29T20:58:19.710Z,-1.08
2022-11-29T21:00:48.116Z,-1.38
2022-11-29T21:03:17.304Z,-0.75
2022-11-29T21:05:45.615Z,-1.08
2022-11-29T21:08:15.025Z,-0.89
2022-11-29T21:10:43.372Z,-1.51
2022-11-29T21:13:13.992Z,-0.94
2022-11-29T21:15:44.268Z,-0.29
2022-11-29T21:18:22.681Z,0.11
2022-11-29T21:20:58.689Z,-0.39
2022-11-29T21:23:34.640Z,-0.72
2022-11-29T21:26:07.532Z,-0.61
2022-11-29T21:28:39.268Z,-0.47
2022-11-29T21:31:11.968Z,-0.33
2022-11-29T21:33:41.332Z,-0.62
2022-11-29T21:36:10.683Z,-0.30
2022-11-29T21:38:39.305Z,-0.95
2022-11-29T21:41:07.523Z,-0.52
2022-11-29T21:44:05.004Z,-0.53
2022-11-29T21:46:25.779Z,-0.05
2022-11-29T21:48:54.230Z,-0.30
2022-11-29T21:51:22.633Z,-0.71
2022-11-29T21:53:51.304Z,-1.01
2022-11-29T21:56:19.630Z,-0.85
2022-11-29T21:58:48.026Z,-0.58
2022-11-29T22:01:17.876Z,-0.58
2022-11-29T22:03:48.164Z,-0.29
2022-11-29T22:06:18.601Z,-0.65
2022-11-29T22:08:48.307Z,-0.53
2022-11-29T22:11:30.667Z,-0.68
2022-11-29T22:14:15.761Z,-0.92
2022-11-29T22:16:45.841Z,-0.93
2022-11-29T22:19:16.882Z,-0.89
2022-11-29T22:21:47.701Z,-1.14
2022-11-29T22:24:17.518Z,-0.87
2022-11-29T22:26:45.833Z,-0.85
2022-11-29T22:29:15.342Z,-0.44
2022-11-29T22:31:44.558Z,-0.41
2022-11-29T22:34:13.245Z,-0.47
2022-11-29T22:36:42.777Z,-0.59
2022-11-29T22:39:11.280Z,-0.95
2022-11-29T22:41:42.838Z,-0.55
2022-11-29T22:44:11.342Z,-1.42
2022-11-29T22:46:40.566Z,-1.33
2022-11-29T22:49:09.002Z,-1.37
2022-11-29T22:51:39.194Z,-0.75
2022-11-29T22:54:11.564Z,-0.41
2022-11-29T22:56:41.814Z,-0.29
2022-11-29T22:59:10.634Z,-0.20
2022-11-29T23:01:41.030Z,0.10
2022-11-29T23:04:10.441Z,0.03
2022-11-29T23:06:40.175Z,-0.10
2022-11-29T23:09:12.144Z,-0.08
2022-11-29T23:11:40.398Z,-0.65
2022-11-29T23:14:08.818Z,-0.76
2022-11-29T23:16:37.250Z,-0.32
2022-11-29T23:19:05.695Z,-0.26
2022-11-29T23:21:36.136Z,0.12
2022-11-29T23:24:04.817Z,-0.72
2022-11-29T23:26:37.596Z,-0.25
2022-11-29T23:29:07.111Z,-0.74
2022-11-29T23:31:35.503Z,-0.92
2022-11-29T23:34:04.442Z,-1.00
2022-11-29T23:36:32.751Z,-0.62
2022-11-29T23:39:01.513Z,-0.31
2022-11-29T23:41:29.632Z,-0.18
2022-11-29T23:44:00.146Z,0.09
2022-11-29T23:46:28.322Z,-0.43
2022-11-29T23:48:56.974Z,-0.46
2022-11-29T23:51:25.177Z,-0.88
2022-11-29T23:53:54.577Z,-0.65
2022-11-29T23:56:23.570Z,-0.91
2022-11-29T23:58:51.959Z,-1.11
